Airfield :
LOGIN :

Register | Disclaimer

   EN    FR    IT 

 










Legend :    VFR   Marginal VFR   IFR   Intensive IFR   Very Intensive IFR
Visi :
Ceiling :
>= 8 km
>= 3000ft
5 to 8 km
1000 to 3000 ft
1500m to 5 km
500 to 1000 ft
800 to 1500m
200 to 500 ft
< 800m
< 200 ft
Symbols :   Thunderstorms  Fog  Heavy snow  Heavy precipitations  Wind > 20 kt
SIGMETs :     Misc.  Thunderstorms  Icing  Turbulence  Mountain Waves  Volcanic Ashes






- Airport Elevation : 1276 ft
- IATA code : STR


EDDS - Stuttgart

CURRENT METAR :
  • 130320Z 34003KT 9999 FEW042 M01/M03 Q1028

EXPIRED METARs :
  • 130250Z VRB01KT 9999 FEW042 M01/M02 Q1028
  • 130220Z 12002KT 9999 FEW042 M01/M01 Q1028
  • 130150Z 14001KT 9999 FEW042 M01/M02 Q1028
  • 130120Z VRB01KT 9999 SCT042 M01/M03 Q1028
  • 130050Z 32002KT 9999 FEW042 M00/M02 Q1028

TAF TAF EDDS
Valid from the 13 at 00:00 until the 14 at 00:00 UTC


122300Z 1300/1324 28004KT 9999 SCT030
PROB30
TEMPO 1303/1306 BKN012
BECMG 1308/1311 36009KT
PROB30
TEMPO 1314/1318 SHSNRA BKN030CB
BECMG 1317/1320 30004KT



MET'MAP, your aeronautical weather chart ! - Copyright ORBIFLY December 2007 - Disclaimer

ORBIFLY MET'MAP TEAM :

Programming & Development : Alexandra Zaïnal
Concept & original design : Baudouin d'Aumeries
Assistance for programming : Marc-Olivier Méhu
Technical & hardware support : Manuel Goepfert

Contact : metmap@orbifly.com




SOURCES & CREDITS :

   NOAA